Ana Sayfa
METAR-TAF:

METAR-TAF

Havaalanları :

Winchester Regional Airport

Winchester, Virginia, Amerika Birleşik Devletleri

Enlem: 39-09N, Boylam: 078-09W, yükseklik: 222 m

Güncel hava durumu gözlemi

Rapor saat 05:15 UTC de 25 dakika önce yapıldı.
Rüzgar batı/kuzeybatıdan 16 kt ve 23 kt'a kadar ani rüzgarlar
Sıcaklık 8°C
Nem 42%
Basınç 1012 hPa
Görüş mesafesi: 16.1 km
Açık gökyüzü

METAR: KOKV 030515Z AUTO 30016G23KT 10SM CLR 08/M04 A2987 RMK AO2

Saat: 01:40 (05:40 UTC)


TAF: eksik

4.000'den fazla havaalanı için hava durumu gözlemleri ve tahminleri (METAR ve TAF raporları).

Kullanılabilir istasyonlar harita üzerinde sarı ve kırmızı noktalarla gösterilir.

İstasyonun adını görmek için fareyi noktanın üzerinde gezdirin.

Sonrasında hava gözlem ve tahminlerini görmek için tıklayın.

Haritayı değiştirmek için: yaklaştırmak için siyah artı işaretli yeşil düğmeye ve uzaklaştırmak için de eksi işaretli düğmeye hızla tıklayın; bitişik haritalar için yeşil okları kullanın.


METAR-TAF: